Time;durP1;ratioP1;P1;durP2;ratioP2;P2;SDS_P1;SDS_P2;PMS_P1;PMS_P2;Temp;Humidity;BMP_temperature;BMP_pressure;BME280_temperature;BME280_humidity;BME280_pressure;Samples;Min_cycle;Max_cycle;Signal;HPM_P1;HPM_P2
2022/01/19 00:00:53;;;;;;;;;;;-0.40;99.90;;;-1.63;100.00;97110.25;10484407;28;1847;-69
2022/01/19 00:05:57;;;;;;;;;;;-0.50;99.90;;;-1.67;100.00;97087.81;10506563;28;1888;-70
2022/01/19 00:11:00;;;;;;;;;;;-0.50;99.90;;;-1.69;100.00;97073.16;10477189;28;1868;-69
2022/01/19 00:16:05;;;;;;;;;;;-0.50;99.90;;;-1.75;100.00;97076.47;10488633;28;2013;-70
2022/01/19 00:21:08;;;;;;;;;;;-0.50;99.90;;;-1.78;100.00;97080.25;10484024;28;1833;-69
2022/01/19 00:26:12;;;;;;;;;;;-0.50;99.90;;;-1.78;100.00;97074.13;10490202;28;1806;-70
2022/01/19 00:31:15;;;;;;;;;;;-0.50;99.90;;;-1.87;100.00;97081.22;10480991;28;1854;-69
2022/01/19 00:36:19;;;;;;;;;;;-0.60;99.90;;;-1.82;100.00;97068.38;10473648;28;1918;-69
2022/01/19 00:41:22;;;;;;;;;;;-0.60;99.90;;;-1.85;100.00;97066.06;10469772;28;1851;-70
2022/01/19 00:46:25;;;;;;;;;;;-0.60;99.90;;;-1.87;100.00;97049.59;10474642;28;1788;-69
2022/01/19 00:51:29;;;;;;;;;;;-0.70;99.90;;;-1.92;100.00;97042.19;10471758;28;1815;-70
2022/01/19 00:56:33;;;;;;;;;;;-0.70;99.90;;;-1.96;100.00;97040.06;10476281;28;1955;-69
2022/01/19 01:01:36;;;;;;;;;;;-0.80;99.90;;;-1.98;100.00;97020.94;10474263;28;1856;-69
2022/01/19 01:06:40;;;;;;;;;;;-0.80;99.90;;;-1.99;100.00;97003.47;10467217;28;1880;-70
2022/01/19 01:11:57;;;;;;;;;;;-0.90;99.90;;;-2.03;100.00;96996.91;10476999;28;1863;-70
2022/01/19 01:17:12;;;;;;;;;;;-0.90;99.90;;;-2.07;100.00;96995.59;10476985;28;1914;-68
2022/01/19 01:22:15;;;;;;;;;;;-0.90;99.90;;;-2.09;100.00;96984.41;10471269;28;1876;-70
2022/01/19 01:27:18;;;;;;;;;;;-0.90;99.90;;;-2.09;100.00;96952.78;10475277;28;1822;-70
2022/01/19 01:32:21;;;;;;;;;;;-0.90;99.90;;;-2.11;100.00;96957.38;10474285;28;1856;-70
2022/01/19 01:37:25;;;;;;;;;;;-1.30;99.90;;;-2.20;100.00;96962.66;10492052;28;1957;-69
2022/01/19 01:42:29;;;;;;;;;;;;;;;-2.20;100.00;96960.03;10474354;28;1766;-70
2022/01/19 01:47:34;;;;;;;;;;;-0.90;99.90;;;-2.14;100.00;96952.44;10482803;28;1807;-70
2022/01/19 01:57:58;;;;;;;;;;;-1.00;99.90;;;-2.18;100.00;96912.44;10482377;28;1926;-70
2022/01/19 02:03:02;;;;;;;;;;;-1.00;99.90;;;-2.20;100.00;96901.25;10481787;28;1899;-71
2022/01/19 02:08:10;;;;;;;;;;;-1.10;99.90;;;-2.27;100.00;96885.28;10482984;28;1903;-73
2022/01/19 02:23:58;;;;;;;;;;;-1.10;99.90;;;-2.38;100.00;96859.28;10483812;28;1779;-70
2022/01/19 02:29:11;;;;;;;;;;;-1.20;99.90;;;-2.43;100.00;96843.16;10477142;28;1816;-70
2022/01/19 02:50:17;;;;;;;;;;;-1.30;99.90;;;-2.48;100.00;96814.72;10533953;28;1642;-76
2022/01/19 02:55:20;;;;;;;;;;;-1.20;99.90;;;-2.52;100.00;96807.31;10529766;28;2039;-75
2022/01/19 03:11:05;;;;;;;;;;;-1.30;99.90;;;-2.60;100.00;96821.31;10513867;28;1733;-75
2022/01/19 03:16:08;;;;;;;;;;;-1.30;99.90;;;-2.58;100.00;96814.03;10506320;28;1914;-74
2022/01/19 03:21:12;;;;;;;;;;;-1.30;99.90;;;-2.54;100.00;96819.81;10496353;28;2081;-76
2022/01/19 03:26:15;;;;;;;;;;;-1.20;99.90;;;-2.45;100.00;96813.53;10512498;28;1955;-75
2022/01/19 03:31:19;;;;;;;;;;;-1.20;99.90;;;-2.38;100.00;96803.97;10517263;28;1870;-76
2022/01/19 03:36:22;;;;;;;;;;;-1.20;99.90;;;-2.49;100.00;96806.94;10524263;28;1970;-75
2022/01/19 03:41:25;;;;;;;;;;;-1.20;99.90;;;-2.56;100.00;96800.72;10518536;28;1502;-76
2022/01/19 03:46:33;;;;;;;;;;;-1.20;99.90;;;-2.63;100.00;96799.75;10476331;28;1951;-73
2022/01/19 03:51:37;;;;;;;;;;;-1.30;99.90;;;-2.50;100.00;96794.78;10487861;28;1958;-75
2022/01/19 03:56:40;;;;;;;;;;;-1.30;99.90;;;-2.51;100.00;96799.22;10474679;28;2070;-75
2022/01/19 04:01:43;;;;;;;;;;;-1.20;99.90;;;-2.49;100.00;96796.41;10477895;28;1824;-75
2022/01/19 04:06:57;;;;;;;;;;;-1.20;99.90;;;-2.62;100.00;96798.75;10483730;28;1986;-74
2022/01/19 04:12:01;;;;;;;;;;;-1.30;99.90;;;-2.49;100.00;96812.22;10479935;28;1908;-76
2022/01/19 04:17:05;;;;;;;;;;;-1.30;99.90;;;-2.27;100.00;96819.44;10487638;28;2030;-75
2022/01/19 04:22:08;;;;;;;;;;;-1.20;99.90;;;-1.92;100.00;96820.00;10470849;28;2099;-75
2022/01/19 04:32:38;;;;;;;;;;;-0.70;99.90;;;-1.31;100.00;96813.13;10468924;28;1908;-75
2022/01/19 04:38:14;;;;;;;;;;;-0.50;99.90;;;-1.18;100.00;96812.56;10473747;28;1962;-76
2022/01/19 05:04:51;;;;;;;;;;;-0.10;99.90;;;-1.57;100.00;96765.16;10433471;28;1981;-74
2022/01/19 05:10:05;;;;;;;;;;;-0.30;99.90;;;-2.04;100.00;96768.66;10493619;28;1908;-77
2022/01/19 05:15:09;;;;;;;;;;;-0.50;99.90;;;-2.17;100.00;96767.38;10522547;28;1891;-74
2022/01/19 05:20:13;;;;;;;;;;;-0.80;99.90;;;-2.27;100.00;96758.03;10513788;28;1998;-73
2022/01/19 05:25:16;;;;;;;;;;;-1.00;99.90;;;-2.36;100.00;96762.50;10555045;28;1637;-76
2022/01/19 05:30:19;;;;;;;;;;;-1.00;99.90;;;-2.44;100.00;96757.25;10532323;28;1602;-75
2022/01/19 05:35:22;;;;;;;;;;;-1.20;99.90;;;-2.24;100.00;96747.16;10536857;28;1919;-77
2022/01/19 05:40:25;;;;;;;;;;;-1.10;99.90;;;-1.86;100.00;96752.59;10536995;28;2055;-73
2022/01/19 05:45:28;;;;;;;;;;;-0.90;99.90;;;-1.47;100.00;96749.94;10551102;28;1848;-74
2022/01/19 05:50:32;;;;;;;;;;;-0.70;99.90;;;-1.19;100.00;96751.06;10533381;28;1718;-77
2022/01/19 05:55:35;;;;;;;;;;;-0.40;99.90;;;-0.99;100.00;96738.22;10560839;28;1890;-75
2022/01/19 06:00:38;;;;;;;;;;;-0.10;99.90;;;-0.87;100.00;96725.41;10514613;28;1921;-75
2022/01/19 06:05:42;;;;;;;;;;;0.00;99.90;;;-0.70;100.00;96734.84;10507496;28;2089;-76
2022/01/19 06:10:45;;;;;;;;;;;0.20;99.90;;;-0.64;100.00;96722.72;10486382;28;2059;-74
2022/01/19 06:15:48;;;;;;;;;;;0.20;99.90;;;-0.57;100.00;96723.66;10479176;28;2015;-74
2022/01/19 06:20:51;;;;;;;;;;;0.40;99.90;;;-0.57;100.00;96721.84;10483635;28;1995;-76
2022/01/19 06:25:55;;;;;;;;;;;0.50;99.90;;;-0.48;100.00;96704.06;10478857;28;1989;-76
2022/01/19 06:30:57;;;;;;;;;;;1.30;99.90;;;-0.50;100.00;96702.63;10478825;28;2038;-74
2022/01/19 06:36:01;;;;;;;;;;;0.50;99.90;;;-0.58;100.00;96709.59;10480596;28;1984;-75
2022/01/19 06:41:05;;;;;;;;;;;0.40;99.90;;;-0.48;100.00;96703.25;10474050;28;2026;-74
2022/01/19 06:46:08;;;;;;;;;;;0.40;99.90;;;-0.46;100.00;96702.06;10476750;28;1913;-75
2022/01/19 06:51:11;;;;;;;;;;;0.50;99.90;;;-0.45;100.00;96697.59;10482732;28;1924;-74
2022/01/19 06:56:16;;;;;;;;;;;0.50;99.90;;;-0.30;100.00;96703.72;10514611;28;1972;-74
2022/01/19 07:01:18;;;;;;;;;;;0.70;99.90;;;-0.29;100.00;96705.34;10531698;28;1412;-75
2022/01/19 07:06:22;;;;;;;;;;;0.70;99.90;;;-0.26;100.00;96699.69;10512527;28;2026;-75
2022/01/19 07:11:26;;;;;;;;;;;0.60;99.90;;;-0.15;100.00;96682.56;10498908;28;1998;-75
2022/01/19 07:16:29;;;;;;;;;;;0.80;99.90;;;-0.13;100.00;96678.72;10469127;28;1981;-75
2022/01/19 07:21:32;;;;;;;;;;;0.90;99.90;;;-0.02;100.00;96677.44;10484338;28;1917;-75
2022/01/19 07:26:35;;;;;;;;;;;0.90;99.90;;;0.01;100.00;96685.00;10466540;28;1903;-75
2022/01/19 07:31:38;;;;;;;;;;;1.00;99.90;;;-0.23;100.00;96680.03;10472459;28;1985;-76
2022/01/19 07:36:41;;;;;;;;;;;0.90;99.90;;;-0.23;100.00;96678.19;10475441;28;1981;-75
2022/01/19 07:41:44;;;;;;;;;;;1.00;99.90;;;-0.06;100.00;96665.59;10471380;28;1963;-74
2022/01/19 07:46:50;;;;;;;;;;;0.90;99.90;;;0.09;100.00;96663.75;10482858;28;1822;-76
2022/01/19 07:51:54;;;;;;;;;;;1.00;99.90;;;0.10;100.00;96654.00;10480410;28;1986;-76
2022/01/19 07:56:57;;;;;;;;;;;1.10;99.90;;;0.39;100.00;96663.66;10473947;28;2157;-78
2022/01/19 08:02:00;;;;;;;;;;;1.20;99.90;;;0.49;100.00;96662.34;10477998;28;1948;-77
2022/01/19 08:07:03;;;;;;;;;;;1.30;99.90;;;0.45;100.00;96658.44;10474273;28;2026;-77
2022/01/19 08:12:07;;;;;;;;;;;1.40;99.90;;;0.71;100.00;96651.75;10466044;28;2033;-75
2022/01/19 08:17:11;;;;;;;;;;;1.50;99.90;;;0.61;100.00;96646.78;10470747;28;2179;-74
2022/01/19 08:22:14;;;;;;;;;;;1.50;99.90;;;0.76;100.00;96646.69;10469268;28;2010;-76
2022/01/19 08:27:17;;;;;;;;;;;1.60;99.90;;;0.95;99.57;96648.69;10480606;28;2383;-77
2022/01/19 08:32:21;;;;;;;;;;;1.80;99.90;;;1.08;98.14;96635.56;10478955;28;1964;-76
2022/01/19 08:37:35;;;;;;;;;;;2.00;99.90;;;1.22;97.19;96633.03;10483696;28;1972;-76
2022/01/19 08:42:38;;;;;;;;;;;2.00;99.90;;;1.38;96.79;96630.03;10463760;28;1991;-77
2022/01/19 08:47:41;;;;;;;;;;;2.40;99.90;;;1.46;95.09;96615.81;10476288;28;2003;-77
2022/01/19 08:52:44;;;;;;;;;;;2.20;99.90;;;1.42;95.29;96631.31;10478952;28;2125;-77
2022/01/19 08:57:47;;;;;;;;;;;2.30;99.90;;;1.71;95.95;96624.09;10461655;28;1969;-77
2022/01/19 09:02:50;;;;;;;;;;;2.40;99.90;;;1.92;93.45;96618.69;10460872;28;1887;-77
2022/01/19 09:07:54;;;;;;;;;;;2.60;99.90;;;2.01;92.12;96617.50;10469729;28;1967;-76
2022/01/19 09:12:57;;;;;;;;;;;2.70;99.90;;;1.87;91.57;96621.13;10485233;28;2085;-76
2022/01/19 09:18:00;;;;;;;;;;;2.70;99.90;;;1.83;92.03;96615.38;10467897;28;1969;-75
2022/01/19 09:23:03;;;;;;;;;;;2.70;99.90;;;1.64;93.32;96621.41;10469728;28;1883;-75
2022/01/19 09:28:07;;;;;;;;;;;2.60;99.90;;;1.61;92.57;96604.09;10473856;28;2051;-73
2022/01/19 09:33:17;;;;;;;;;;;2.60;99.90;;;1.55;92.56;96601.41;10475170;28;2205;-77
2022/01/19 09:38:20;;;;;;;;;;;2.50;99.90;;;1.03;94.28;96595.63;10485979;28;1914;-75
2022/01/19 09:43:23;;;;;;;;;;;2.40;99.90;;;1.15;94.99;96585.31;10472718;28;2062;-75
2022/01/19 09:48:27;;;;;;;;;;;2.20;99.90;;;1.15;94.93;96579.19;10470663;28;1948;-77
2022/01/19 09:53:30;;;;;;;;;;;2.30;99.90;;;1.07;96.19;96572.19;10471219;28;2027;-76
2022/01/19 09:58:33;;;;;;;;;;;2.20;99.90;;;1.14;95.83;96567.75;10470063;28;1959;-75
2022/01/19 10:03:36;;;;;;;;;;;2.20;99.90;;;1.18;95.36;96565.56;10469433;28;1979;-74
2022/01/19 10:08:40;;;;;;;;;;;2.20;99.90;;;1.30;93.76;96556.03;10475056;28;1988;-75
2022/01/19 10:19:04;;;;;;;;;;;2.20;99.90;;;1.27;94.26;96532.59;10469616;28;1977;-75
2022/01/19 10:24:07;;;;;;;;;;;2.30;99.90;;;1.29;93.25;96518.16;10474584;28;1908;-75
2022/01/19 10:29:13;;;;;;;;;;;2.30;99.90;;;1.28;94.06;96505.09;10467540;28;1980;-72
2022/01/19 10:34:16;;;;;;;;;;;2.40;99.90;;;1.46;93.60;96497.41;10470698;28;1998;-76
2022/01/19 10:39:20;;;;;;;;;;;3.10;99.90;;;1.51;92.93;96497.63;10466694;28;1981;-73
2022/01/19 10:44:23;;;;;;;;;;;2.50;99.90;;;1.61;91.22;96476.88;10477484;28;1924;-75
2022/01/19 10:49:26;;;;;;;;;;;2.60;99.90;;;1.69;90.96;96467.13;10471504;28;1967;-75
2022/01/19 10:54:32;;;;;;;;;;;2.70;99.90;;;1.87;90.43;96454.91;10473091;28;1983;-77
2022/01/19 10:59:40;;;;;;;;;;;2.80;99.90;;;1.90;89.25;96456.34;10474089;28;2144;-77
2022/01/19 11:04:43;;;;;;;;;;;2.90;99.90;;;1.85;89.35;96450.84;10469801;28;1971;-76
2022/01/19 11:09:57;;;;;;;;;;;2.90;99.90;;;2.09;88.56;96446.75;10470232;28;1927;-77
2022/01/19 11:15:00;;;;;;;;;;;3.10;99.90;;;2.11;87.09;96429.63;10464955;28;1956;-74
2022/01/19 11:20:12;;;;;;;;;;;3.10;99.90;;;2.24;86.87;96426.16;10473059;28;1895;-74
2022/01/19 11:25:15;;;;;;;;;;;3.20;99.90;;;2.39;85.47;96413.50;10474163;28;1989;-74
2022/01/19 11:30:39;;;;;;;;;;;3.30;99.90;;;2.55;83.38;96406.13;10499937;28;2202;-75
2022/01/19 11:35:42;;;;;;;;;;;3.50;99.90;;;2.74;82.81;96401.81;10533939;28;2193;-74
2022/01/19 11:40:45;;;;;;;;;;;3.60;99.90;;;2.88;80.27;96398.06;10483487;28;1922;-75
2022/01/19 11:45:48;;;;;;;;;;;3.80;99.90;;;3.17;78.56;96389.56;10475076;28;1685;-74
2022/01/19 11:50:52;;;;;;;;;;;4.10;99.90;;;3.33;77.96;96374.16;10478752;28;2361;-74
2022/01/19 11:55:55;;;;;;;;;;;4.20;99.90;;;3.42;75.51;96383.50;10480857;28;1952;-73
2022/01/19 12:00:58;;;;;;;;;;;4.30;99.90;;;3.45;75.15;96364.47;10497775;28;2005;-74
2022/01/19 12:06:02;;;;;;;;;;;2.80;99.90;;;3.53;75.01;96350.94;10505685;28;1582;-74
2022/01/19 12:11:06;;;;;;;;;;;4.50;99.90;;;3.75;72.77;96338.06;10506784;28;1884;-75
2022/01/19 12:16:17;;;;;;;;;;;4.90;99.90;;;3.76;73.33;96329.91;10486550;28;1991;-76
2022/01/19 12:21:21;;;;;;;;;;;;;;;3.99;72.09;96307.19;10479225;28;1946;-75
2022/01/19 12:26:24;;;;;;;;;;;4.90;99.90;;;3.97;71.06;96304.75;10485362;28;1856;-75
2022/01/19 12:31:27;;;;;;;;;;;5.00;99.90;;;4.01;70.90;96299.81;10470048;28;1951;-76
2022/01/19 12:36:30;;;;;;;;;;;5.10;99.90;;;4.11;69.13;96291.31;10474418;28;2129;-77
2022/01/19 12:41:33;;;;;;;;;;;5.10;99.90;;;4.05;70.23;96279.72;10473784;28;1986;-76
2022/01/19 12:46:36;;;;;;;;;;;5.00;99.90;;;4.18;69.85;96286.75;10473115;28;1979;-75
2022/01/19 12:51:40;;;;;;;;;;;5.10;99.90;;;4.20;70.37;96271.38;10469406;28;1946;-77
2022/01/19 12:56:43;;;;;;;;;;;5.20;99.90;;;4.23;69.72;96263.75;10477512;28;1957;-77
2022/01/19 13:01:46;;;;;;;;;;;5.30;99.90;;;4.37;69.43;96250.31;10472679;28;1917;-77
2022/01/19 13:06:50;;;;;;;;;;;;;;;4.37;69.43;96240.47;10474187;28;1684;-77
2022/01/19 13:11:55;;;;;;;;;;;5.30;99.90;;;4.41;68.75;96235.53;10467557;28;1621;-76
2022/01/19 13:16:58;;;;;;;;;;;5.30;99.90;;;4.51;68.71;96233.94;10480822;28;1975;-76
2022/01/19 13:22:01;;;;;;;;;;;5.40;99.90;;;4.48;68.27;96225.59;10479522;28;1972;-76
2022/01/19 13:27:04;;;;;;;;;;;5.40;99.90;;;4.47;69.30;96224.00;10475460;28;1966;-75
2022/01/19 13:32:07;;;;;;;;;;;5.50;99.90;;;4.48;69.36;96209.63;10477573;28;2036;-75
2022/01/19 13:37:11;;;;;;;;;;;5.50;99.90;;;4.55;68.66;96205.84;10486173;28;1973;-76
2022/01/19 13:42:14;;;;;;;;;;;5.60;99.90;;;4.66;68.66;96196.28;10484211;28;1942;-76
2022/01/19 13:47:27;;;;;;;;;;;5.80;99.90;;;4.77;68.77;96195.53;10483252;28;1981;-77
2022/01/19 13:52:30;;;;;;;;;;;5.70;99.90;;;4.95;67.32;96193.81;10477866;28;1973;-76
2022/01/19 13:57:34;;;;;;;;;;;;;;;5.06;66.44;96195.72;10488318;28;2054;-75
2022/01/19 14:02:37;;;;;;;;;;;;;;;5.05;67.04;96196.75;10489640;28;2431;-76
2022/01/19 14:08:01;;;;;;;;;;;;;;;5.05;65.74;96194.91;10476886;28;1982;-75
2022/01/19 14:13:05;;;;;;;;;;;;;;;5.11;65.55;96187.84;10478028;28;1996;-76
2022/01/19 14:18:09;;;;;;;;;;;6.10;99.90;;;5.14;66.02;96176.72;10480629;28;1990;-77
2022/01/19 14:23:15;;;;;;;;;;;6.20;99.90;;;5.20;67.13;96170.47;10469797;28;2017;-77
2022/01/19 14:28:18;;;;;;;;;;;6.30;99.90;;;5.06;67.23;96172.53;10472594;28;1913;-77
2022/01/19 14:33:22;;;;;;;;;;;6.30;99.90;;;4.99;67.73;96179.00;10483353;28;1913;-77
2022/01/19 14:38:25;;;;;;;;;;;6.10;99.90;;;5.06;67.91;96167.22;10482743;28;2049;-74
2022/01/19 14:43:29;;;;;;;;;;;6.20;99.90;;;4.93;68.76;96158.63;10496499;28;2062;-77
2022/01/19 14:48:32;;;;;;;;;;;6.10;99.90;;;4.61;69.29;96162.34;10475721;28;1841;-78
2022/01/19 14:53:35;;;;;;;;;;;6.00;99.90;;;4.63;70.36;96150.66;10503665;28;2036;-77
2022/01/19 14:58:39;;;;;;;;;;;5.80;99.90;;;4.52;70.65;96146.94;10485342;28;2033;-79
2022/01/19 15:03:43;;;;;;;;;;;5.70;99.90;;;4.66;70.45;96140.38;10488429;28;2012;-80
2022/01/19 15:08:46;;;;;;;;;;;5.70;99.90;;;4.67;70.85;96135.84;10490188;28;2028;-79
2022/01/19 15:13:50;;;;;;;;;;;5.80;99.90;;;4.75;70.25;96139.00;10494969;28;1900;-80
2022/01/19 15:18:54;;;;;;;;;;;5.90;99.90;;;4.62;70.37;96125.88;10498094;28;1924;-78
2022/01/19 15:23:59;;;;;;;;;;;6.10;99.90;;;4.54;70.98;96123.53;10491521;28;1942;-79
2022/01/19 15:29:02;;;;;;;;;;;5.80;99.90;;;4.36;72.35;96120.94;10487081;28;1982;-78
2022/01/19 15:34:09;;;;;;;;;;;5.70;99.90;;;4.25;72.23;96120.66;10494910;28;1883;-79
2022/01/19 15:39:12;;;;;;;;;;;5.60;99.90;;;4.42;69.20;96120.03;10482124;28;1915;-79
2022/01/19 15:44:15;;;;;;;;;;;5.50;99.90;;;4.53;66.97;96117.41;10491776;28;1927;-80
2022/01/19 15:49:19;;;;;;;;;;;5.60;99.90;;;4.41;67.38;96134.38;10487470;28;2078;-80
2022/01/19 15:54:22;;;;;;;;;;;5.60;99.90;;;4.17;68.35;96131.59;10497166;28;1967;-80
2022/01/19 15:59:25;;;;;;;;;;;5.50;99.90;;;4.03;69.16;96138.13;10498640;28;1971;-79
2022/01/19 16:04:28;;;;;;;;;;;5.40;99.90;;;3.94;70.16;96150.91;10518038;28;2094;-77
2022/01/19 16:09:32;;;;;;;;;;;5.20;99.90;;;3.74;70.80;96161.75;10526001;28;1705;-78
2022/01/19 16:14:36;;;;;;;;;;;5.10;99.90;;;3.70;71.91;96165.91;10531400;28;1474;-76
2022/01/19 16:19:39;;;;;;;;;;;5.10;99.90;;;3.71;71.88;96164.88;10534212;28;1951;-78
2022/01/19 16:30:04;;;;;;;;;;;4.90;99.90;;;3.66;72.70;96180.69;10528189;28;1925;-76
2022/01/19 16:35:10;;;;;;;;;;;4.90;99.90;;;3.44;73.74;96177.63;10525706;28;1423;-79
2022/01/19 16:40:13;;;;;;;;;;;4.70;99.90;;;3.32;75.36;96166.09;10490811;28;1969;-79
2022/01/19 16:45:24;;;;;;;;;;;4.60;99.90;;;3.24;76.53;96185.78;10477461;28;2339;-80
2022/01/19 16:50:27;;;;;;;;;;;4.50;99.90;;;3.17;76.69;96192.16;10491750;28;2117;-76
2022/01/19 16:55:30;;;;;;;;;;;4.40;99.90;;;3.17;77.64;96179.69;10483042;28;1665;-78
2022/01/19 17:00:34;;;;;;;;;;;4.30;99.90;;;2.89;79.11;96180.09;10494630;28;2233;-77
2022/01/19 17:05:37;;;;;;;;;;;4.20;99.90;;;2.77;80.19;96188.97;10497567;28;1968;-79
2022/01/19 17:10:47;;;;;;;;;;;4.10;99.90;;;2.77;81.22;96187.13;10480948;28;2049;-78
2022/01/19 17:15:54;;;;;;;;;;;4.00;99.90;;;2.67;82.33;96195.59;10483342;28;1871;-78
2022/01/19 17:20:58;;;;;;;;;;;3.90;99.90;;;2.58;83.34;96194.19;10467895;28;1918;-79
2022/01/19 17:26:01;;;;;;;;;;;3.80;99.90;;;2.48;83.96;96193.81;10469454;28;1952;-79
2022/01/19 17:31:04;;;;;;;;;;;3.80;99.90;;;2.30;85.77;96191.91;10473073;28;1915;-77
2022/01/19 17:36:07;;;;;;;;;;;3.60;99.90;;;2.25;86.42;96193.56;10474642;28;1943;-78
2022/01/19 17:41:10;;;;;;;;;;;3.50;99.90;;;2.17;86.73;96194.59;10482653;28;2032;-79
2022/01/19 17:46:18;;;;;;;;;;;3.70;99.90;;;2.06;87.93;96185.47;10478031;28;1932;-76
2022/01/19 17:51:35;;;;;;;;;;;3.40;99.90;;;1.90;88.73;96183.25;10481578;28;1993;-79
2022/01/19 17:56:38;;;;;;;;;;;3.30;99.90;;;1.86;90.14;96201.44;10481759;28;1986;-78
2022/01/19 18:01:41;;;;;;;;;;;3.10;99.90;;;1.95;89.99;96183.47;10480969;28;2116;-79
2022/01/19 18:06:46;;;;;;;;;;;3.20;99.90;;;1.90;90.85;96191.22;10476614;28;1907;-80
2022/01/19 18:11:49;;;;;;;;;;;3.10;99.90;;;1.81;91.68;96189.81;10477721;28;1977;-79
2022/01/19 18:16:53;;;;;;;;;;;3.10;99.90;;;1.77;92.04;96193.91;10485424;28;1888;-79
2022/01/19 18:21:57;;;;;;;;;;;3.00;99.90;;;1.87;92.61;96204.91;10483535;28;1906;-76
2022/01/19 18:27:01;;;;;;;;;;;3.00;99.90;;;2.05;91.70;96189.13;10477367;28;1950;-76
2022/01/19 18:32:04;;;;;;;;;;;3.10;99.90;;;2.04;90.85;96184.88;10474448;28;1964;-77
2022/01/19 18:37:10;;;;;;;;;;;3.10;99.90;;;2.00;91.10;96188.13;10496639;28;1974;-76
2022/01/19 18:42:13;;;;;;;;;;;3.10;99.90;;;2.04;91.46;96186.72;10499075;28;2014;-77
2022/01/19 18:47:16;;;;;;;;;;;3.20;99.90;;;1.93;91.49;96190.00;10511925;28;1644;-77
2022/01/19 18:52:23;;;;;;;;;;;3.10;99.90;;;1.84;92.25;96184.91;10502428;28;1939;-75
2022/01/19 18:57:27;;;;;;;;;;;3.10;99.90;;;1.79;92.87;96184.75;10508650;28;1927;-79
2022/01/19 19:02:30;;;;;;;;;;;3.00;99.90;;;1.69;93.06;96175.59;10496550;28;1921;-80
2022/01/19 19:07:35;;;;;;;;;;;2.90;99.90;;;1.68;93.37;96176.63;10479986;28;1900;-77
2022/01/19 19:12:38;;;;;;;;;;;2.90;99.90;;;1.62;93.27;96171.13;10493331;28;1912;-78
2022/01/19 19:17:42;;;;;;;;;;;2.80;99.90;;;1.59;93.15;96174.19;10492817;28;1971;-80
2022/01/19 19:22:46;;;;;;;;;;;2.80;99.90;;;1.50;93.65;96172.78;10503953;28;2006;-78
2022/01/19 19:27:49;;;;;;;;;;;2.80;99.90;;;1.54;93.46;96163.41;10498089;28;1943;-77
2022/01/19 19:32:54;;;;;;;;;;;2.70;99.90;;;1.53;93.30;96174.22;10498021;28;1899;-79
2022/01/19 19:37:57;;;;;;;;;;;2.70;99.90;;;1.66;92.60;96173.38;10513548;28;1936;-82
2022/01/19 19:43:01;;;;;;;;;;;2.70;99.90;;;1.74;92.34;96170.47;10513113;28;1958;-79
2022/01/19 19:48:04;;;;;;;;;;;2.80;99.90;;;1.90;91.23;96170.81;10489396;28;1934;-78
2022/01/19 19:53:09;;;;;;;;;;;2.90;99.90;;;2.01;90.23;96166.72;10509863;28;2014;-80
2022/01/19 19:58:12;;;;;;;;;;;3.00;99.90;;;2.06;89.40;96166.91;10509242;28;1848;-79
2022/01/19 20:03:15;;;;;;;;;;;3.10;99.90;;;2.12;88.58;96155.44;10522705;28;1957;-79
2022/01/19 20:08:30;;;;;;;;;;;3.20;99.90;;;2.11;88.81;96161.78;10512768;28;1872;-77
2022/01/19 20:13:33;;;;;;;;;;;3.20;99.90;;;2.19;88.22;96138.69;10499830;28;1935;-80
2022/01/19 20:18:36;;;;;;;;;;;3.20;99.90;;;2.30;87.92;96148.63;10496450;28;1921;-78
2022/01/19 20:23:40;;;;;;;;;;;3.30;99.90;;;2.36;86.12;96143.28;10489357;28;2220;-80
2022/01/19 20:28:43;;;;;;;;;;;3.30;99.90;;;2.39;86.21;96144.69;10477532;28;1995;-79
2022/01/19 20:33:46;;;;;;;;;;;3.40;99.90;;;2.44;85.11;96148.34;10500754;28;2097;-78
2022/01/19 20:38:53;;;;;;;;;;;3.50;99.90;;;2.53;84.28;96148.88;10489314;28;1943;-78
2022/01/19 20:43:56;;;;;;;;;;;3.50;99.90;;;2.56;82.80;96143.19;10489351;28;2025;-79
2022/01/19 20:48:59;;;;;;;;;;;3.60;99.90;;;2.59;82.61;96150.69;10494953;28;1773;-79
2022/01/19 20:54:05;;;;;;;;;;;3.60;99.90;;;2.57;82.47;96144.78;10493970;28;2026;-79
2022/01/19 20:59:09;;;;;;;;;;;3.70;99.90;;;2.66;81.78;96132.88;10475311;28;2441;-76
2022/01/19 21:04:12;;;;;;;;;;;3.70;99.90;;;2.72;80.82;96137.31;10471107;28;1970;-77
2022/01/19 21:09:15;;;;;;;;;;;3.70;99.90;;;2.70;80.74;96138.59;10466632;28;2105;-78
2022/01/19 21:14:18;;;;;;;;;;;3.80;99.90;;;2.75;80.43;96129.97;10465833;28;1888;-75
2022/01/19 21:19:21;;;;;;;;;;;3.80;99.90;;;2.70;80.11;96146.56;10464989;28;1924;-80
2022/01/19 21:24:26;;;;;;;;;;;3.70;99.90;;;2.79;80.26;96149.75;10479101;28;1963;-76
2022/01/19 21:29:30;;;;;;;;;;;3.80;99.90;;;2.68;80.52;96146.78;10475244;28;1935;-79
2022/01/19 21:34:33;;;;;;;;;;;3.80;99.90;;;2.68;80.38;96151.28;10469989;28;1766;-78
2022/01/19 21:39:37;;;;;;;;;;;3.80;99.90;;;2.70;80.21;96150.00;10463654;28;1917;-78
2022/01/19 21:44:42;;;;;;;;;;;3.80;99.90;;;2.64;80.04;96150.06;10466791;28;2022;-78
2022/01/19 21:49:45;;;;;;;;;;;3.70;99.90;;;2.63;79.68;96148.44;10491076;28;2100;-77
2022/01/19 21:54:49;;;;;;;;;;;3.80;99.90;;;2.52;79.94;96162.38;10478764;28;2070;-78
2022/01/19 21:59:53;;;;;;;;;;;3.70;99.90;;;2.52;80.45;96170.34;10488693;28;2031;-79
2022/01/19 22:04:56;;;;;;;;;;;3.60;99.90;;;2.51;79.87;96166.88;10481615;28;1907;-77
2022/01/19 22:09:59;;;;;;;;;;;3.60;99.90;;;2.38;80.42;96161.66;10478971;28;1927;-77
2022/01/19 22:15:03;;;;;;;;;;;3.70;99.90;;;2.32;80.74;96165.16;10491854;28;1974;-80
2022/01/19 22:20:06;;;;;;;;;;;3.50;99.90;;;2.26;80.21;96171.31;10478841;28;1973;-78
2022/01/19 22:25:10;;;;;;;;;;;3.40;99.90;;;2.13;80.63;96165.03;10476614;28;1873;-76
2022/01/19 22:30:13;;;;;;;;;;;3.50;99.90;;;2.16;80.55;96169.94;10480715;28;1908;-77
2022/01/19 22:35:16;;;;;;;;;;;3.30;99.90;;;2.13;80.13;96159.72;10484819;28;2137;-77
2022/01/19 22:40:19;;;;;;;;;;;3.20;99.90;;;2.17;80.58;96160.13;10484795;28;2294;-79
2022/01/19 22:45:23;;;;;;;;;;;3.20;99.90;;;2.15;80.17;96151.56;10480017;28;2315;-78
2022/01/19 22:50:26;;;;;;;;;;;3.20;99.90;;;2.17;79.52;96158.28;10482461;28;2000;-76
2022/01/19 22:55:29;;;;;;;;;;;3.20;99.90;;;2.22;79.75;96162.13;10499261;28;1839;-79
2022/01/19 23:00:32;;;;;;;;;;;3.30;99.90;;;2.23;79.02;96164.59;10506579;28;1900;-78
2022/01/19 23:05:36;;;;;;;;;;;3.60;99.90;;;2.29;78.89;96155.78;10479327;28;1887;-77
2022/01/19 23:10:39;;;;;;;;;;;3.30;99.90;;;2.33;78.57;96174.72;10481423;28;1884;-78
2022/01/19 23:15:42;;;;;;;;;;;3.30;99.90;;;2.29;79.08;96168.22;10490931;28;1947;-79
2022/01/19 23:20:45;;;;;;;;;;;3.30;99.90;;;2.31;78.05;96158.22;10501302;28;1977;-76
2022/01/19 23:25:49;;;;;;;;;;;3.40;99.90;;;2.31;78.76;96160.88;10503155;28;1947;-78
2022/01/19 23:30:53;;;;;;;;;;;3.40;99.90;;;2.25;79.08;96164.38;10488687;28;2472;-78
2022/01/19 23:35:59;;;;;;;;;;;3.30;99.90;;;2.27;78.33;96162.31;10469093;28;1908;-77
2022/01/19 23:51:40;;;;;;;;;;;3.30;99.90;;;2.29;78.52;96154.94;10478993;28;1915;-77
2022/01/19 23:56:58;;;;;;;;;;;3.30;99.90;;;2.29;78.10;96136.38;10475508;28;1994;-76
